Time;durP1;ratioP1;P1;durP2;ratioP2;P2;SDS_P1;SDS_P2;PMS_P1;PMS_P2;Temp;Humidity;BMP_temperature;BMP_pressure;BME280_temperature;BME280_humidity;BME280_pressure;Samples;Min_cycle;Max_cycle;Signal;HPM_P1;HPM_P2
2021/10/22 00:04:53;;;;;;;0.20;0.00;;;16.40;99.90;;;;;;20346094;29;20244;-68
2021/10/22 00:14:58;;;;;;;0.77;0.70;;;16.40;99.90;;;;;;20339952;29;20202;-68
2021/10/22 00:25:02;;;;;;;6.80;2.13;;;16.30;99.90;;;;;;20338901;29;20328;-67
2021/10/22 00:35:08;;;;;;;0.20;0.10;;;16.10;99.90;;;;;;20341304;29;20198;-68
2021/10/22 00:45:11;;;;;;;0.63;0.43;;;16.30;99.90;;;;;;20345111;29;20232;-66
2021/10/22 00:55:16;;;;;;;1.30;0.40;;;16.30;99.90;;;;;;20343745;29;20622;-67
2021/10/22 01:05:20;;;;;;;0.20;0.10;;;16.10;99.90;;;;;;20344006;29;20602;-68
2021/10/22 01:15:25;;;;;;;0.93;0.60;;;16.00;99.90;;;;;;20343118;29;20672;-67
2021/10/22 01:25:30;;;;;;;0.20;0.10;;;15.80;99.90;;;;;;20342932;29;20606;-65
2021/10/22 01:35:34;;;;;;;1.30;0.60;;;15.90;99.90;;;;;;20337530;29;20216;-66
2021/10/22 01:45:39;;;;;;;2.10;0.83;;;15.90;99.90;;;;;;20341400;29;20961;-67
2021/10/22 01:55:43;;;;;;;0.20;0.00;;;15.90;99.90;;;;;;20340833;29;20217;-68
2021/10/22 02:05:48;;;;;;;0.30;0.20;;;16.00;99.90;;;;;;20339904;29;20326;-66
2021/10/22 02:15:52;;;;;;;0.67;0.67;;;15.80;99.90;;;;;;20339307;29;20281;-66
2021/10/22 02:25:57;;;;;;;0.50;0.30;;;15.60;99.90;;;;;;20338349;29;20229;-66
2021/10/22 02:36:01;;;;;;;0.40;0.40;;;15.40;99.90;;;;;;20332852;29;20285;-66
2021/10/22 02:46:06;;;;;;;0.20;0.10;;;15.30;99.90;;;;;;20335631;29;20236;-68
2021/10/22 02:56:10;;;;;;;2.20;0.83;;;15.20;99.90;;;;;;20335104;29;20210;-68
2021/10/22 03:06:14;;;;;;;0.20;0.20;;;15.20;99.90;;;;;;20335784;29;20244;-67
2021/10/22 03:16:18;;;;;;;1.30;1.20;;;15.10;99.90;;;;;;20335249;29;20306;-66
2021/10/22 03:26:24;;;;;;;0.20;0.10;;;15.00;99.90;;;;;;20334967;29;20222;-68
2021/10/22 03:36:27;;;;;;;2.37;0.97;;;15.00;99.90;;;;;;20329966;29;20194;-67
2021/10/22 03:46:32;;;;;;;0.20;0.10;;;15.20;99.90;;;;;;20334745;29;20256;-67
2021/10/22 03:56:36;;;;;;;1.57;0.87;;;15.40;99.90;;;;;;20332736;29;20660;-65
2021/10/22 04:06:41;;;;;;;0.30;0.30;;;15.30;99.90;;;;;;20333470;29;20245;-67
2021/10/22 04:16:44;;;;;;;0.37;0.30;;;15.30;99.90;;;;;;20332755;29;20191;-67
2021/10/22 04:26:50;;;;;;;0.30;0.13;;;15.30;99.90;;;;;;20339816;29;20228;-65
2021/10/22 04:36:54;;;;;;;0.20;0.10;;;15.20;99.90;;;;;;20303379;29;20206;-66
2021/10/22 04:46:59;;;;;;;0.30;0.30;;;15.30;99.90;;;;;;20266382;29;20227;-67
2021/10/22 04:57:03;;;;;;;0.40;0.40;;;15.10;99.90;;;;;;20317889;29;20287;-67
2021/10/22 05:07:07;;;;;;;0.20;0.10;;;15.20;99.90;;;;;;20330997;29;20257;-67
2021/10/22 05:17:11;;;;;;;0.83;0.53;;;15.30;99.90;;;;;;20338367;29;20202;-67
2021/10/22 05:27:16;;;;;;;0.63;0.43;;;15.40;99.90;;;;;;20337617;29;20229;-67
2021/10/22 05:37:20;;;;;;;0.20;0.10;;;15.60;99.90;;;;;;20335743;29;20297;-67
2021/10/22 05:47:25;;;;;;;0.30;0.30;;;15.50;99.90;;;;;;20335978;29;20304;-68
2021/10/22 05:57:28;;;;;;;0.20;0.10;;;15.50;99.90;;;;;;20332401;29;20212;-67
2021/10/22 06:07:34;;;;;;;0.60;0.30;;;15.50;99.90;;;;;;20290331;29;1217457;-69
2021/10/22 06:17:37;;;;;;;1.07;0.43;;;15.70;99.90;;;;;;20336242;29;20845;-67
2021/10/22 06:27:43;;;;;;;4.00;0.73;;;15.80;99.90;;;;;;20333974;29;20230;-64
2021/10/22 06:37:46;;;;;;;0.20;0.20;;;15.60;99.90;;;;;;20336347;29;20216;-68
2021/10/22 06:47:51;;;;;;;0.20;0.10;;;15.60;99.90;;;;;;20334172;29;20226;-67
2021/10/22 06:57:55;;;;;;;0.50;0.40;;;16.00;99.90;;;;;;20333281;29;20204;-66
2021/10/22 07:08:02;;;;;;;0.80;0.70;;;15.80;99.90;;;;;;20331751;29;20252;-67
2021/10/22 07:18:07;;;;;;;1.53;0.97;;;15.70;99.90;;;;;;20332118;29;20206;-76
2021/10/22 07:28:15;;;;;;;0.20;0.20;;;15.60;99.90;;;;;;20331272;29;20328;-68
2021/10/22 07:38:19;;;;;;;0.20;0.17;;;16.00;99.90;;;;;;20333308;29;20202;-68
2021/10/22 07:48:25;;;;;;;0.63;0.30;;;16.30;99.90;;;;;;20305191;29;20242;-70
2021/10/22 07:58:29;;;;;;;0.63;0.20;;;16.50;99.90;;;;;;20318608;29;20640;-66
2021/10/22 08:08:35;;;;;;;0.20;0.13;;;16.40;99.90;;;;;;20346326;29;20265;-68
2021/10/22 08:18:40;;;;;;;0.20;0.20;;;16.70;99.90;;;;;;20346518;29;20900;-67
2021/10/22 08:28:46;;;;;;;0.33;0.33;;;16.90;99.90;;;;;;20345654;29;20232;-67
2021/10/22 08:38:50;;;;;;;0.30;0.30;;;17.40;99.90;;;;;;20344483;29;20198;-68
2021/10/22 08:48:56;;;;;;;1.83;0.47;;;17.90;99.90;;;;;;20342220;29;20304;-67
2021/10/22 08:58:59;;;;;;;0.77;0.77;;;18.20;99.90;;;;;;20292593;29;20642;-66
2021/10/22 09:09:04;;;;;;;4.70;1.37;;;18.80;99.90;;;;;;20268920;29;20251;-68
2021/10/22 09:19:08;;;;;;;0.20;0.13;;;19.10;99.90;;;;;;20308072;29;20294;-67
2021/10/22 09:29:20;;;;;;;0.30;0.30;;;19.60;99.90;;;;;;20310062;29;20227;-67
2021/10/22 09:39:24;;;;;;;0.20;0.10;;;20.60;99.90;;;;;;20261792;29;20289;-67
2021/10/22 09:49:35;;;;;;;0.20;0.10;;;21.40;99.90;;;;;;20258115;29;20249;-66
2021/10/22 09:59:39;;;;;;;0.50;0.45;;;21.20;99.90;;;;;;20333135;29;20239;-67
2021/10/22 10:09:44;;;;;;;0.77;0.77;;;20.80;99.90;;;;;;20337786;29;20711;-66
2021/10/22 10:19:51;;;;;;;0.30;0.20;;;20.80;99.90;;;;;;20336395;29;20205;-67
2021/10/22 10:29:59;;;;;;;0.40;0.40;;;21.40;99.90;;;;;;20336056;29;20313;-68
2021/10/22 10:40:15;;;;;;;0.73;0.60;;;22.00;99.90;;;;;;20334978;29;20989;-67
2021/10/22 10:50:25;;;;;;;0.30;0.22;;;22.80;99.90;;;;;;20334499;29;20320;-68
2021/10/22 11:00:33;;;;;;;0.20;0.15;;;23.20;99.90;;;;;;20256069;29;20700;-68
2021/10/22 11:11:06;;;;;;;1.02;0.75;;;23.80;99.90;;;;;;20322566;29;20233;-68
2021/10/22 11:21:13;;;;;;;1.60;0.68;;;24.00;99.90;;;;;;20335931;29;20269;-67
2021/10/22 11:31:36;;;;;;;0.40;0.32;;;22.20;99.90;;;;;;20331549;29;20276;-68
2021/10/22 11:41:40;;;;;;;3.38;0.75;;;22.80;99.90;;;;;;20348017;29;20225;-66
2021/10/22 11:51:51;;;;;;;0.63;0.63;;;22.40;99.90;;;;;;20345699;29;20229;-66
2021/10/22 12:02:05;;;;;;;0.20;0.10;;;22.20;99.90;;;;;;20346708;29;20253;-67
2021/10/22 12:12:13;;;;;;;0.65;0.30;;;22.00;99.90;;;;;;20345143;29;20539;-66
2021/10/22 12:22:24;;;;;;;0.95;0.40;;;22.00;99.90;;;;;;20344351;29;20203;-66
2021/10/22 12:32:43;;;;;;;0.65;0.38;;;22.60;99.90;;;;;;20340036;29;20701;-67
2021/10/22 12:42:47;;;;;;;0.20;0.00;;;23.20;99.90;;;;;;20338160;29;20258;-67
2021/10/22 12:53:00;;;;;;;0.20;0.10;;;22.60;99.90;;;;;;20342797;29;20254;-66
2021/10/22 13:03:05;;;;;;;0.80;0.50;;;23.60;99.90;;;;;;20343124;29;20236;-66
2021/10/22 13:13:17;;;;;;;0.77;0.20;;;22.90;99.90;;;;;;20340491;29;20293;-66
2021/10/22 13:23:21;;;;;;;0.20;0.00;;;23.10;99.90;;;;;;20339451;29;20208;-67
2021/10/22 13:33:29;;;;;;;0.32;0.13;;;24.00;99.90;;;;;;20340478;29;20699;-66
2021/10/22 13:43:32;;;;;;;0.20;0.10;;;24.10;99.90;;;;;;20341447;29;20685;-66
2021/10/22 13:53:44;;;;;;;0.45;0.35;;;24.80;99.90;;;;;;20337747;29;20237;-66
2021/10/22 14:03:48;;;;;;;0.32;0.28;;;24.50;99.90;;;;;;20336836;29;20222;-63
2021/10/22 14:13:57;;;;;;;0.20;0.00;;;23.40;99.90;;;;;;20334150;29;20230;-66
2021/10/22 14:24:08;;;;;;;0.30;0.30;;;22.30;99.90;;;;;;20333326;29;20558;-66
2021/10/22 14:34:14;;;;;;;0.20;0.10;;;22.00;99.90;;;;;;20332822;29;20231;-66
2021/10/22 14:44:21;;;;;;;0.30;0.20;;;22.00;99.90;;;;;;20331239;29;20664;-66
2021/10/22 14:54:28;;;;;;;1.77;0.33;;;21.90;99.90;;;;;;20330374;29;20349;-66
2021/10/22 15:04:32;;;;;;;0.20;0.10;;;21.40;99.90;;;;;;20330257;29;20684;-65
2021/10/22 15:14:38;;;;;;;3.33;0.40;;;21.20;99.90;;;;;;20329282;29;20230;-65
2021/10/22 15:24:41;;;;;;;0.80;0.37;;;21.30;99.90;;;;;;20330695;29;20206;-65
2021/10/22 15:34:48;;;;;;;0.20;0.10;;;21.20;99.90;;;;;;20329562;29;20309;-68
2021/10/22 15:44:53;;;;;;;0.20;0.10;;;21.10;99.90;;;;;;20327839;29;20210;-68
2021/10/22 15:54:58;;;;;;;0.20;0.00;;;20.80;99.90;;;;;;20325646;29;20230;-65
2021/10/22 16:05:02;;;;;;;0.20;0.00;;;20.60;99.90;;;;;;20327352;29;20230;-67
2021/10/22 16:15:28;;;;;;;0.20;0.00;;;20.40;99.90;;;;;;20327003;29;20238;-67
2021/10/22 16:25:32;;;;;;;0.20;0.17;;;20.20;99.90;;;;;;20339766;29;20285;-67
2021/10/22 16:35:42;;;;;;;0.37;0.37;;;19.90;99.90;;;;;;20339874;29;20241;-67
2021/10/22 16:45:47;;;;;;;0.20;0.07;;;19.60;99.90;;;;;;20343260;29;20265;-67
2021/10/22 16:55:52;;;;;;;0.30;0.17;;;19.40;99.90;;;;;;20343946;29;20240;-68
2021/10/22 17:05:56;;;;;;;0.20;0.20;;;18.90;99.90;;;;;;20341690;29;20385;-67
2021/10/22 17:16:01;;;;;;;0.30;0.30;;;18.60;99.90;;;;;;20342365;29;20257;-68
2021/10/22 17:26:05;;;;;;;0.37;0.37;;;18.50;99.90;;;;;;20341412;29;20695;-67
2021/10/22 17:36:10;;;;;;;0.40;0.30;;;18.30;99.90;;;;;;20301816;29;20230;-68
2021/10/22 17:46:13;;;;;;;0.30;0.30;;;18.10;99.90;;;;;;20263410;29;20282;-67
2021/10/22 17:56:18;;;;;;;0.90;0.90;;;17.80;99.90;;;;;;20306202;29;20244;-68
2021/10/22 18:06:22;;;;;;;2.27;1.10;;;17.50;99.90;;;;;;20338538;29;20248;-66
2021/10/22 18:16:27;;;;;;;0.40;0.40;;;17.50;99.90;;;;;;20337947;29;20326;-67
2021/10/22 18:26:30;;;;;;;3.97;0.87;;;17.40;99.90;;;;;;20335130;29;20212;-67
2021/10/22 18:36:36;;;;;;;0.40;0.40;;;17.30;99.90;;;;;;20298965;29;20281;-66
2021/10/22 18:46:42;;;;;;;0.43;0.43;;;17.10;99.90;;;;;;20334296;29;20568;-66
2021/10/22 18:56:47;;;;;;;0.60;0.60;;;16.90;99.90;;;;;;20329833;29;20695;-67
2021/10/22 19:06:54;;;;;;;3.17;1.70;;;16.80;99.90;;;;;;20331216;29;20226;-67
2021/10/22 19:16:59;;;;;;;0.20;0.10;;;16.60;99.90;;;;;;20329080;29;20383;-67
2021/10/22 19:27:03;;;;;;;0.30;0.20;;;16.50;99.90;;;;;;20329422;29;20218;-67
2021/10/22 19:37:08;;;;;;;0.20;0.10;;;16.60;99.90;;;;;;20326060;29;20649;-67
2021/10/22 19:47:11;;;;;;;0.20;0.10;;;16.50;99.90;;;;;;20328317;29;20225;-66
2021/10/22 19:57:16;;;;;;;0.87;0.50;;;16.20;99.90;;;;;;20337506;29;20222;-66
2021/10/22 20:07:20;;;;;;;0.20;0.10;;;16.10;99.90;;;;;;20343677;29;20301;-66
2021/10/22 20:17:25;;;;;;;0.20;0.00;;;16.00;99.90;;;;;;20344973;29;20593;-65
2021/10/22 20:27:29;;;;;;;0.80;0.80;;;16.10;99.90;;;;;;20343916;29;20205;-67
2021/10/22 20:37:34;;;;;;;1.50;1.40;;;16.00;99.90;;;;;;20331923;29;20697;-66
2021/10/22 20:47:38;;;;;;;5.20;1.43;;;15.90;99.90;;;;;;20263034;29;20613;-69
2021/10/22 20:57:45;;;;;;;0.20;0.20;;;15.90;99.90;;;;;;20320770;29;20253;-67
2021/10/22 21:07:49;;;;;;;0.20;0.13;;;15.70;99.90;;;;;;20340163;29;20236;-67
2021/10/22 21:17:53;;;;;;;0.20;0.20;;;15.60;99.90;;;;;;20338892;29;20325;-65
2021/10/22 21:27:57;;;;;;;0.20;0.10;;;15.60;99.90;;;;;;20338847;29;20216;-66
2021/10/22 21:38:02;;;;;;;1.40;1.30;;;15.40;99.90;;;;;;20334045;29;20230;-67
2021/10/22 21:48:07;;;;;;;0.20;0.00;;;15.50;99.90;;;;;;20337007;29;20205;-68
2021/10/22 21:58:13;;;;;;;0.20;0.17;;;15.30;99.90;;;;;;20335348;29;20252;-66
2021/10/22 22:08:16;;;;;;;0.20;0.07;;;15.40;99.90;;;;;;20336176;29;20230;-66
2021/10/22 22:18:21;;;;;;;0.20;0.20;;;15.40;99.90;;;;;;20334155;29;20238;-66
2021/10/22 22:28:25;;;;;;;0.20;0.20;;;15.30;99.90;;;;;;20334882;29;20206;-65
2021/10/22 22:38:30;;;;;;;0.20;0.20;;;15.00;99.90;;;;;;20330724;29;20569;-66
2021/10/22 22:48:34;;;;;;;3.37;1.77;;;15.10;99.90;;;;;;20334114;29;20226;-67
2021/10/22 22:58:39;;;;;;;0.20;0.10;;;14.90;99.90;;;;;;20334025;29;20236;-66
2021/10/22 23:08:43;;;;;;;0.40;0.40;;;15.10;99.90;;;;;;20332030;29;20296;-66
2021/10/22 23:18:48;;;;;;;1.83;1.23;;;15.30;99.90;;;;;;20332910;29;20664;-66
2021/10/22 23:28:51;;;;;;;0.20;0.03;;;15.30;99.90;;;;;;20334605;29;20230;-66
2021/10/22 23:38:56;;;;;;;0.47;0.47;;;15.30;99.90;;;;;;20343042;29;20213;-66
2021/10/22 23:49:00;;;;;;;0.83;0.50;;;15.20;99.90;;;;;;20346455;29;20233;-66
2021/10/22 23:59:05;;;;;;;1.60;1.50;;;15.20;99.90;;;;;;20346844;29;20206;-67
